メインページ
METAR-TAF:

METAR-TAF

空港 :

Arviat, ヌナブト準州, カナダ

緯度: 61-06N, 経度: 094-04W, 海抜: 10m

現時点の気象観測

当レポートは30分前の13:00(UTC)に作成
西/南西の風 9kt
気温 -3°C
湿度 93%
気圧 1015 hPa
視程: 24.1km
高度30000ftの雲はほとんどない

METAR: CYEK 191300Z 24009KT 15SM FEW300 M03/M04 A2996 RMK CC2 SLP147

時間: 08:30 (13:30 UTC)

予報

当レポートは1時間51分前の11:39(UTC)に作成
予報は19日の 12時(UTC)から 19日の 24時(UTC)まで有効
西/南西の風 8kt
視程: 10km
晴天
19日の 12時(UTC)から 19日の 13時(UTC)まで徐々に
西の風 15kt
19日の 1300時(UTC)から
西の風 15kt
視程: 10km
高度3000ftの雲は散在している
19日の 13時(UTC)から 19日の 24時(UTC)まで一時的に
視程: 6.4km
高度3000ftの千切れ雲あり
弱いにわか雪

TAF: CYEK 191139Z 1912/1924 24008KT P6SM SKC BECMG 1912/1913 28015KT FM191300 28015KT P6SM SCT030 TEMPO 1913/1924 4SM -SHSN BKN030 RMK FCST BASED ON AUTO OBS. NXT FCST BY 191800Z

4,000以上の空港の気象観測と天気予報(METAR報とTAF報)

利用可能な観測所は地図上に黄色い丸と赤い丸で示す。

丸の上にカーソルを重ねると観測所名を参照できる。

次にクリックすると気象観測と天気予報を参照できる。

マップの切り替え:黒色「×」印の緑ボタンをクリックして拡大、「-」印の緑ボタンをクリックして縮小、緑色の三角印をクリックして隣りの地図に切り替え


METAR-TAF: